Terminal Aerodrome Forecast
Issued by NWS

Home | Current Version | Previous Version | Text Only | Print | Product List | Glossary On
Versions: 1 2 3 4 5 6 7 8 9 10 11 12 13 14 15 16 17
000
FTUS41 KBGM 281100
TAFRME
TAF
KRME 281120Z 2812/2912 10007KT P6SM -SHRA SCT015 OVC040
      TEMPO 2812/2816 3SM -SHRA BR OVC015
     FM281600 05007KT 5SM -SHRA BR OVC015
     FM281800 34012KT 5SM -SHRA BR OVC015
     FM290000 30008KT P6SM -SHRA OVC025
     FM290600 30005KT P6SM OVC040=

USA.gov is the U.S. government's official web portal to all federal, state and local government web resources and services.